Time;durP1;ratioP1;P1;durP2;ratioP2;P2;SDS_P1;SDS_P2;PMS_P1;PMS_P2;Temp;Humidity;BMP_temperature;BMP_pressure;BME280_temperature;BME280_humidity;BME280_pressure;Samples;Min_cycle;Max_cycle;Signal;HPM_P1;HPM_P2
2022/12/19 00:01:21;;;;;;;;;24.00;23.25;;;;;6.03;78.52;101244.81;5056849;28;46245;-65
2022/12/19 00:03:49;;;;;;;;;31.25;25.50;;;;;5.98;77.75;101251.13;5060710;28;45537;-67
2022/12/19 00:06:16;;;;;;;;;31.00;25.50;;;;;6.12;78.78;101262.19;5074899;28;45371;-66
2022/12/19 00:08:43;;;;;;;;;24.75;24.75;;;;;6.13;78.54;101242.81;5061117;28;45339;-66
2022/12/19 00:11:10;;;;;;;;;31.75;28.00;;;;;6.16;77.94;101253.28;5078636;28;46037;-64
2022/12/19 00:13:35;;;;;;;;;27.25;24.00;;;;;6.16;78.07;101248.88;5077270;28;45423;-64
2022/12/19 00:16:07;;;;;;;;;26.75;25.75;;;;;6.15;77.89;101230.44;5078087;28;45352;-66
2022/12/19 00:18:33;;;;;;;;;21.00;20.00;;;;;6.26;77.96;101238.94;5077996;28;45538;-64
2022/12/19 00:21:01;;;;;;;;;27.50;25.50;;;;;6.28;76.81;101237.09;5072584;28;45944;-65
2022/12/19 00:23:28;;;;;;;;;24.00;24.00;;;;;6.30;77.37;101240.56;5060295;28;45439;-64
2022/12/19 00:25:53;;;;;;;;;27.75;25.00;;;;;6.34;77.72;101236.03;5076787;28;45319;-64
2022/12/19 00:28:19;;;;;;;;;30.25;25.75;;;;;6.36;76.97;101229.81;5077939;28;45562;-61
2022/12/19 00:30:44;;;;;;;;;24.75;21.75;;;;;6.36;76.80;101227.16;5078060;28;45301;-64
2022/12/19 00:33:09;;;;;;;;;24.50;19.75;;;;;6.36;76.76;101228.94;5067998;28;45353;-64
2022/12/19 00:35:35;;;;;;;;;30.00;24.50;;;;;6.43;76.72;101233.16;5075017;28;45263;-68
2022/12/19 00:38:01;;;;;;;;;28.00;24.25;;;;;6.44;76.65;101222.53;5078084;28;45492;-65
2022/12/19 00:40:27;;;;;;;;;21.50;20.00;;;;;6.47;76.08;101226.88;5076275;28;46331;-65
2022/12/19 00:42:52;;;;;;;;;23.00;21.75;;;;;6.47;75.88;101211.88;5078209;28;45346;-63
2022/12/19 00:45:21;;;;;;;;;21.25;19.00;;;;;6.51;76.55;101217.97;5077247;28;45786;-65
2022/12/19 00:47:46;;;;;;;;;24.25;21.25;;;;;6.54;76.73;101212.56;5060058;28;45392;-63
2022/12/19 00:50:12;;;;;;;;;23.50;18.00;;;;;6.58;76.53;101203.63;5076262;28;45477;-62
2022/12/19 00:52:37;;;;;;;;;25.25;20.00;;;;;6.58;75.99;101197.47;5077544;28;45279;-62
2022/12/19 00:55:03;;;;;;;;;25.50;19.50;;;;;6.62;76.38;101199.97;5058138;28;45252;-63
2022/12/19 00:57:29;;;;;;;;;23.00;20.50;;;;;6.57;76.13;101185.19;5077817;28;45184;-64
2022/12/19 00:59:54;;;;;;;;;23.00;17.75;;;;;6.62;76.65;101185.91;5077524;28;45550;-65
2022/12/19 01:02:19;;;;;;;;;29.25;20.50;;;;;6.70;76.49;101189.19;5058272;28;45866;-64
2022/12/19 01:04:45;;;;;;;;;28.50;22.00;;;;;6.71;76.36;101194.41;5076865;28;45485;-64
2022/12/19 01:07:10;;;;;;;;;24.50;21.25;;;;;6.78;76.06;101192.47;5074726;28;45492;-63
2022/12/19 01:09:36;;;;;;;;;25.75;22.00;;;;;6.74;76.38;101183.75;5057567;28;45255;-64
2022/12/19 01:14:48;;;;;;;;;25.50;23.25;;;;;6.85;76.25;101191.34;5075578;28;45378;-66
2022/12/19 01:17:13;;;;;;;;;23.75;21.00;;;;;6.86;76.26;101195.72;5076729;28;45564;-66
2022/12/19 01:19:39;;;;;;;;;25.25;19.25;;;;;6.90;75.45;101200.03;5076714;28;46158;-66
2022/12/19 01:22:04;;;;;;;;;25.50;21.50;;;;;6.92;76.03;101197.34;5076784;28;45782;-65
2022/12/19 01:24:30;;;;;;;;;17.75;17.75;;;;;6.92;75.57;101203.47;5076425;28;45572;-63
2022/12/19 01:26:55;;;;;;;;;21.50;17.25;;;;;6.95;75.46;101208.66;5058788;28;45503;-65
2022/12/19 01:29:20;;;;;;;;;24.50;21.00;;;;;6.97;75.52;101212.13;5077244;28;45406;-66
2022/12/19 01:31:46;;;;;;;;;23.00;18.75;;;;;7.01;75.49;101203.19;5058269;28;45367;-64
2022/12/19 01:34:12;;;;;;;;;21.50;17.25;;;;;6.97;75.13;101201.56;5075309;28;45295;-66
2022/12/19 01:36:38;;;;;;;;;20.50;16.50;;;;;7.05;75.59;101214.53;5066273;28;45178;-67
2022/12/19 01:39:03;;;;;;;;;17.00;13.75;;;;;7.07;75.32;101197.72;5075959;28;45918;-66
2022/12/19 01:41:28;;;;;;;;;21.00;16.00;;;;;7.10;75.43;101208.19;5075574;28;45276;-66
2022/12/19 01:43:55;;;;;;;;;17.50;17.50;;;;;7.13;75.31;101201.91;5075996;28;45228;-63
2022/12/19 01:46:26;;;;;;;;;20.00;18.25;;;;;7.06;74.98;101174.81;5077442;28;45288;-65
2022/12/19 01:48:52;;;;;;;;;21.75;20.50;;;;;7.17;75.19;101192.13;5074778;28;47082;-63
2022/12/19 01:51:26;;;;;;;;;21.00;20.50;;;;;7.15;74.78;101189.50;5075105;28;45523;-64
2022/12/19 01:53:56;;;;;;;;;18.00;18.00;;;;;7.19;75.17;101193.81;5075854;28;45429;-64
2022/12/19 01:56:28;;;;;;;;;17.50;13.75;;;;;7.22;75.23;101201.63;5079507;28;45358;-63
2022/12/19 01:58:57;;;;;;;;;15.00;15.00;;;;;7.23;75.29;101194.56;5057904;28;46785;-64
2022/12/19 02:01:23;;;;;;;;;18.75;14.75;;;;;7.26;75.00;101197.09;5077587;28;45667;-65
2022/12/19 02:03:49;;;;;;;;;17.25;14.00;;;;;7.27;74.60;101198.81;5067913;28;45383;-66
2022/12/19 02:06:16;;;;;;;;;19.50;16.75;;;;;7.31;75.63;101204.00;5055953;28;45395;-65
2022/12/19 02:08:45;;;;;;;;;17.00;17.00;;;;;7.31;75.27;101201.34;5082602;27;46054;-66
2022/12/19 02:11:10;;;;;;;;;22.50;18.00;;;;;7.32;75.20;101212.78;5070417;28;46182;-66
2022/12/19 02:13:36;;;;;;;;;18.25;18.25;;;;;7.34;75.65;101210.97;5075150;28;45297;-64
2022/12/19 02:16:46;;;;;;;;;22.00;19.50;;;;;7.35;76.06;101212.69;5065252;28;45397;-64
2022/12/19 02:19:20;;;;;;;;;19.25;17.00;;;;;7.34;75.66;101203.00;5038912;28;45359;-61
2022/12/19 02:22:05;;;;;;;;;19.25;15.75;;;;;7.37;75.74;101205.56;5051854;28;45509;-63
2022/12/19 02:24:41;;;;;;;;;18.25;16.75;;;;;7.38;75.32;101197.56;5075778;28;45473;-63
2022/12/19 02:27:36;;;;;;;;;16.00;13.00;;;;;7.37;75.58;101201.13;5075690;28;45319;-64
2022/12/19 02:30:02;;;;;;;;;16.00;15.50;;;;;7.39;75.57;101198.44;5075812;28;45532;-62
2022/12/19 02:32:41;;;;;;;;;18.75;17.25;;;;;7.39;76.07;101203.72;5075972;28;45265;-66
2022/12/19 02:35:16;;;;;;;;;19.75;17.25;;;;;7.40;76.16;101197.50;5074558;28;45308;-61
2022/12/19 02:37:49;;;;;;;;;13.00;13.00;;;;;7.42;75.56;101203.59;5072145;28;45535;-66
2022/12/19 02:40:29;;;;;;;;;20.50;14.00;;;;;7.39;75.77;101182.56;5074996;28;45705;-65
2022/12/19 02:42:59;;;;;;;;;20.00;16.25;;;;;7.43;76.43;101192.13;5074999;28;45431;-65
2022/12/19 02:45:31;;;;;;;;;20.75;17.75;;;;;7.34;77.19;101182.72;5074999;28;45414;-62
2022/12/19 02:48:02;;;;;;;;;18.00;17.50;;;;;7.40;76.62;101195.72;5057159;28;45304;-63
2022/12/19 02:50:42;;;;;;;;;16.00;13.50;;;;;7.40;76.78;101187.78;5077192;28;45204;-64
2022/12/19 02:53:12;;;;;;;;;14.75;14.75;;;;;7.40;76.11;101206.31;5074630;28;45307;-63
2022/12/19 02:55:48;;;;;;;;;8.25;8.25;;;;;7.41;76.72;101199.22;5076494;28;45351;-62
2022/12/19 02:58:31;;;;;;;;;22.00;15.75;;;;;7.43;76.67;101189.50;5071966;28;45533;-66
2022/12/19 03:01:15;;;;;;;;;16.75;14.00;;;;;7.43;77.26;101194.78;5075997;28;45465;-65
2022/12/19 03:03:43;;;;;;;;;22.00;17.00;;;;;7.44;77.51;101188.56;5073973;28;45332;-63
2022/12/19 03:06:35;;;;;;;;;19.50;16.00;;;;;7.44;77.65;101185.94;5076106;28;45513;-64
2022/12/19 03:09:17;;;;;;;;;15.75;14.50;;;;;7.43;76.79;101186.84;5075075;28;45530;-63
2022/12/19 03:11:48;;;;;;;;;14.00;14.00;;;;;7.41;78.00;101186.00;5055464;28;46420;-62
2022/12/19 03:14:18;;;;;;;;;16.00;16.00;;;;;7.45;77.92;101192.94;5056028;28;45486;-65
2022/12/19 03:16:44;;;;;;;;;15.25;12.75;;;;;7.45;78.32;101186.78;5074991;28;45319;-65
2022/12/19 03:19:13;;;;;;;;;13.00;13.00;;;;;7.43;78.29;101180.69;5057138;28;45350;-63
2022/12/19 03:21:49;;;;;;;;;16.75;16.75;;;;;7.46;78.20;101189.38;5075214;28;46137;-66
2022/12/19 03:24:16;;;;;;;;;17.00;16.50;;;;;7.48;78.87;101179.59;5074670;28;45272;-64
2022/12/19 03:26:47;;;;;;;;;16.50;13.00;;;;;7.49;78.82;101168.09;5073768;28;45334;-64
2022/12/19 03:29:30;;;;;;;;;16.75;15.75;;;;;7.47;79.37;101174.38;5079221;28;45555;-64
2022/12/19 03:31:58;;;;;;;;;15.50;15.50;;;;;7.46;78.97;101184.09;5075670;28;45544;-63
2022/12/19 03:34:29;;;;;;;;;21.75;20.00;;;;;7.46;79.21;101184.09;5060378;28;45526;-61
2022/12/19 03:36:59;;;;;;;;;19.25;18.00;;;;;7.47;79.95;101185.81;5060002;28;45309;-64
2022/12/19 03:39:27;;;;;;;;;17.00;16.00;;;;;7.50;80.17;101183.06;5060324;28;45575;-64
2022/12/19 03:44:41;;;;;;;;;23.00;17.25;;;;;7.34;79.44;101147.44;5077267;28;45353;-62
2022/12/19 03:47:25;;;;;;;;;17.50;14.50;;;;;7.47;79.48;101169.94;5077094;28;45299;-63
2022/12/19 03:49:50;;;;;;;;;17.00;16.50;;;;;7.49;79.17;101173.38;5076848;28;45164;-64
2022/12/19 03:52:27;;;;;;;;;17.50;17.25;;;;;7.51;79.24;101170.69;5073353;28;45434;-63
2022/12/19 03:55:06;;;;;;;;;19.00;15.25;;;;;7.51;78.94;101181.28;5078670;28;45457;-63
2022/12/19 03:57:46;;;;;;;;;19.50;16.00;;;;;7.55;79.10;101177.59;5072992;28;45501;-64
2022/12/19 04:00:14;;;;;;;;;24.25;17.25;;;;;7.59;78.55;101181.88;5058541;28;45391;-61
2022/12/19 04:02:44;;;;;;;;;12.50;12.50;;;;;7.57;78.80;101176.66;5057840;28;45418;-63
2022/12/19 04:05:14;;;;;;;;;17.25;15.75;;;;;7.59;78.17;101180.09;5059394;28;45531;-63
2022/12/19 04:07:41;;;;;;;;;15.50;14.75;;;;;7.64;79.29;101180.81;5067094;28;45545;-63
2022/12/19 04:10:10;;;;;;;;;19.25;16.50;;;;;7.68;78.61;101187.75;5059906;28;45587;-63
2022/12/19 04:12:41;;;;;;;;;17.00;16.50;;;;;7.66;78.64;101188.69;5055051;28;45254;-62
2022/12/19 04:15:08;;;;;;;;;17.00;15.75;;;;;7.69;78.57;101197.41;5062663;28;45753;-63
2022/12/19 04:17:33;;;;;;;;;17.25;12.00;;;;;7.72;78.22;101203.50;5058352;28;45477;-65
2022/12/19 04:20:12;;;;;;;;;17.00;14.50;;;;;7.74;77.88;101201.66;5059158;28;45693;-65
2022/12/19 04:22:43;;;;;;;;;15.50;14.00;;;;;7.78;78.02;101195.34;5075631;28;46364;-65
2022/12/19 04:25:12;;;;;;;;;15.50;11.50;;;;;7.76;77.89;101186.59;5077363;28;45351;-65
2022/12/19 04:27:44;;;;;;;;;13.00;13.00;;;;;7.85;77.71;101194.22;5059118;28;45279;-65
2022/12/19 04:30:15;;;;;;;;;17.75;13.75;;;;;7.89;77.56;101187.88;5078443;28;45295;-65
2022/12/19 04:32:41;;;;;;;;;14.25;14.25;;;;;7.89;77.27;101183.47;5077126;28;45810;-62
2022/12/19 04:35:07;;;;;;;;;13.50;13.50;;;;;7.83;77.71;101166.94;5078462;28;45468;-65
2022/12/19 04:37:32;;;;;;;;;12.75;12.75;;;;;7.96;77.40;101184.97;5077188;28;45493;-66
2022/12/19 04:39:58;;;;;;;;;15.25;14.50;;;;;7.97;77.37;101180.56;5041236;28;45563;-64
2022/12/19 04:42:24;;;;;;;;;16.25;14.00;;;;;7.96;76.94;101184.13;5076969;28;45529;-64
2022/12/19 04:44:49;;;;;;;;;9.75;9.75;;;;;8.00;76.67;101180.44;5077845;28;45378;-64
2022/12/19 04:47:15;;;;;;;;;13.00;13.00;;;;;8.01;76.87;101184.81;5076822;28;45634;-65
2022/12/19 04:49:40;;;;;;;;;13.25;11.50;;;;;7.98;77.41;101169.03;5075996;28;45370;-65
2022/12/19 04:52:05;;;;;;;;;15.25;12.50;;;;;8.07;77.09;101176.63;5059207;28;46069;-66
2022/12/19 04:54:31;;;;;;;;;11.75;9.00;;;;;8.11;77.13;101188.00;5076925;28;45297;-65
2022/12/19 04:56:57;;;;;;;;;11.25;11.25;;;;;8.12;76.97;101185.28;5076980;28;45170;-66
2022/12/19 04:59:22;;;;;;;;;14.75;12.50;;;;;8.13;76.34;101179.06;5076094;28;45706;-66
2022/12/19 05:01:48;;;;;;;;;13.00;10.50;;;;;8.15;76.74;101179.00;5076563;28;46458;-65
2022/12/19 05:04:14;;;;;;;;;13.25;13.25;;;;;8.13;77.45;101171.13;5075151;28;45395;-61
2022/12/19 05:06:39;;;;;;;;;14.00;12.25;;;;;8.16;77.20;101181.59;5058055;28;45444;-64
2022/12/19 05:09:04;;;;;;;;;7.25;7.25;;;;;8.16;76.98;101176.28;5058858;28;45779;-63
2022/12/19 05:11:30;;;;;;;;;13.00;13.00;;;;;8.19;77.20;101175.31;5076218;28;46199;-64
2022/12/19 05:13:58;;;;;;;;;13.75;13.00;;;;;8.19;76.75;101176.19;5074834;27;45406;-61
2022/12/19 05:16:23;;;;;;;;;12.00;11.50;;;;;8.19;76.39;101173.53;5048766;28;45589;-63
2022/12/19 05:18:48;;;;;;;;;10.00;10.00;;;;;8.21;76.82;101174.34;5057151;28;45229;-63
2022/12/19 05:21:14;;;;;;;;;15.50;11.25;;;;;8.23;77.00;101169.88;5066797;28;45219;-64
2022/12/19 05:23:40;;;;;;;;;11.75;11.75;;;;;8.14;76.95;101156.94;5077433;28;45339;-64
2022/12/19 05:26:06;;;;;;;;;13.25;11.25;;;;;8.25;76.70;101169.81;5079396;28;45244;-64
2022/12/19 05:28:32;;;;;;;;;14.25;10.75;;;;;8.21;76.77;101163.75;5073720;28;45600;-63
2022/12/19 05:31:05;;;;;;;;;10.00;9.25;;;;;8.28;76.34;101177.63;5073416;28;47673;-66
2022/12/19 05:33:31;;;;;;;;;10.50;9.00;;;;;8.19;76.51;101160.28;5075983;28;45280;-67
2022/12/19 05:35:56;;;;;;;;;12.50;9.75;;;;;8.29;76.55;101180.22;5076084;28;45416;-67
2022/12/19 05:38:22;;;;;;;;;9.00;9.00;;;;;8.29;77.04;101182.00;5058768;28;45608;-66
2022/12/19 05:40:47;;;;;;;;;10.75;10.00;;;;;8.34;77.06;101190.69;5075333;28;45439;-62
2022/12/19 05:43:12;;;;;;;;;13.75;9.00;;;;;8.34;77.12;101195.09;5076744;28;45428;-67
2022/12/19 05:45:39;;;;;;;;;10.50;10.50;;;;;8.35;76.82;101197.72;5072429;28;45295;-65
2022/12/19 05:48:04;;;;;;;;;10.75;10.00;;;;;8.34;76.29;101193.34;5056185;28;45528;-66
2022/12/19 05:50:30;;;;;;;;;10.00;10.00;;;;;8.36;77.58;101182.69;5041684;28;46070;-63
2022/12/19 05:52:55;;;;;;;;;17.75;14.50;;;;;8.37;77.07;101185.28;5075799;28;45335;-63
2022/12/19 05:55:21;;;;;;;;;13.50;11.00;;;;;8.29;77.91;101160.81;5076422;28;45373;-62
2022/12/19 05:57:46;;;;;;;;;10.25;9.25;;;;;8.38;77.34;101187.00;5076306;28;45366;-65
2022/12/19 06:00:12;;;;;;;;;9.50;8.50;;;;;8.37;78.07;101179.13;5073655;28;45502;-67
2022/12/19 06:02:38;;;;;;;;;10.00;10.00;;;;;8.32;77.19;101170.41;5066008;28;45362;-68
2022/12/19 06:05:04;;;;;;;;;11.25;10.75;;;;;8.38;77.66;101186.16;5067565;28;45351;-67
2022/12/19 06:07:29;;;;;;;;;11.00;11.00;;;;;8.41;77.83;101188.66;5070173;28;45467;-64
2022/12/19 06:09:55;;;;;;;;;9.00;9.00;;;;;8.42;76.68;101188.63;5075565;28;47021;-63
2022/12/19 06:12:20;;;;;;;;;11.25;11.25;;;;;8.43;77.35;101190.34;5074851;28;45522;-66
2022/12/19 06:14:46;;;;;;;;;14.50;10.00;;;;;8.33;76.32;101172.16;5065589;28;45438;-64
2022/12/19 06:17:11;;;;;;;;;19.25;13.50;;;;;8.39;77.58;101177.28;5057733;28;45602;-64
2022/12/19 06:19:37;;;;;;;;;15.50;13.75;;;;;8.29;77.55;101156.38;5044221;28;46206;-64
2022/12/19 06:22:02;;;;;;;;;22.00;15.00;;;;;8.42;77.18;101178.00;5074966;28;45318;-64
2022/12/19 06:24:27;;;;;;;;;14.75;11.00;;;;;8.40;77.29;101189.59;5076891;28;45272;-63
2022/12/19 06:26:53;;;;;;;;;12.75;10.75;;;;;8.46;77.52;101181.41;5058120;28;45590;-65
2022/12/19 06:29:18;;;;;;;;;12.75;11.00;;;;;8.46;77.65;101184.06;5075946;28;45836;-64
2022/12/19 06:31:43;;;;;;;;;13.50;11.75;;;;;8.27;77.22;101152.91;5075319;27;45503;-65
2022/12/19 06:34:09;;;;;;;;;12.25;12.25;;;;;8.47;77.92;101191.09;5074543;28;45330;-65
2022/12/19 06:36:36;;;;;;;;;13.00;13.00;;;;;8.47;77.06;101180.50;5071518;28;45714;-65
2022/12/19 06:39:03;;;;;;;;;14.00;13.50;;;;;8.53;76.93;101183.78;5072823;27;46227;-65
2022/12/19 06:44:14;;;;;;;;;15.50;13.75;;;;;8.55;77.44;101173.97;5076570;28;45397;-67
2022/12/19 06:46:41;;;;;;;;;13.75;11.00;;;;;8.57;77.29;101171.25;5058916;28;45478;-66
2022/12/19 06:49:07;;;;;;;;;16.50;14.25;;;;;8.59;77.97;101172.06;5074615;28;45415;-66
2022/12/19 06:51:33;;;;;;;;;14.00;12.00;;;;;8.63;78.48;101181.63;5073602;27;45512;-64
2022/12/19 06:53:58;;;;;;;;;15.00;12.75;;;;;8.57;78.25;101165.94;5056677;28;45202;-65
2022/12/19 06:56:24;;;;;;;;;11.50;11.50;;;;;8.66;76.92;101181.50;5080570;27;45476;-66
2022/12/19 06:58:50;;;;;;;;;13.00;10.25;;;;;8.62;77.36;101171.09;5059266;28;46039;-66
2022/12/19 07:01:16;;;;;;;;;15.00;14.00;;;;;8.66;77.04;101173.56;5065729;28;45775;-66
2022/12/19 07:03:42;;;;;;;;;10.75;10.00;;;;;8.67;77.62;101167.34;5080019;28;45390;-65
2022/12/19 07:06:07;;;;;;;;;16.50;13.25;;;;;8.69;77.22;101176.09;5066338;28;45452;-64
2022/12/19 07:08:33;;;;;;;;;13.50;13.00;;;;;8.70;77.89;101177.81;5077457;28;45339;-65
2022/12/19 07:10:58;;;;;;;;;16.50;13.50;;;;;8.60;77.23;101159.69;5078407;28;45473;-64
2022/12/19 07:13:23;;;;;;;;;15.50;12.75;;;;;8.73;77.32;101182.16;5061871;27;45340;-66
2022/12/19 07:15:51;;;;;;;;;18.25;15.25;;;;;8.70;77.51;101167.19;5058226;28;45611;-65
2022/12/19 07:18:17;;;;;;;;;15.00;13.50;;;;;8.76;77.21;101182.03;5058093;28;46545;-63
2022/12/19 07:20:43;;;;;;;;;16.75;13.25;;;;;8.77;76.48;101189.06;5084461;27;45339;-65
2022/12/19 07:23:13;;;;;;;;;12.50;11.00;;;;;8.78;76.96;101186.34;5050520;28;45577;-66
2022/12/19 07:25:38;;;;;;;;;14.25;13.00;;;;;8.80;76.37;101187.13;5058209;28;45573;-66
2022/12/19 07:28:06;;;;;;;;;18.00;15.50;;;;;8.75;76.34;101186.47;5075394;28;45347;-66
2022/12/19 07:30:31;;;;;;;;;15.50;13.25;;;;;8.77;77.35;101189.91;5077207;28;45248;-62
2022/12/19 07:32:56;;;;;;;;;11.50;11.50;;;;;8.84;77.54;101191.38;5061010;28;45546;-63
2022/12/19 07:35:23;;;;;;;;;13.50;11.25;;;;;8.81;77.97;101177.41;5079020;28;45652;-60
2022/12/19 07:37:49;;;;;;;;;13.75;11.25;;;;;8.90;76.53;101197.41;5058260;28;46065;-59
2022/12/19 07:40:14;;;;;;;;;12.00;11.00;;;;;8.83;76.12;101194.97;5078370;28;45477;-61
2022/12/19 07:42:40;;;;;;;;;11.25;11.25;;;;;8.83;75.53;101189.66;5077679;28;45414;-64
2022/12/19 07:45:05;;;;;;;;;12.00;10.00;;;;;8.84;77.28;101194.03;5078064;28;45331;-61
2022/12/19 07:47:31;;;;;;;;;12.50;12.25;;;;;8.83;76.86;101188.81;5059664;28;45959;-62
2022/12/19 07:49:56;;;;;;;;;14.50;11.00;;;;;8.83;77.06;101192.31;5070058;27;45317;-58
2022/12/19 07:52:22;;;;;;;;;14.00;10.75;;;;;8.79;76.85;101188.06;5073474;28;45462;-63
2022/12/19 07:54:47;;;;;;;;;14.50;12.00;;;;;8.82;76.83;101193.25;5076893;27;45299;-61
2022/12/19 07:57:13;;;;;;;;;2.00;2.00;;;;;8.78;76.51;101186.34;5078695;28;46288;-59
2022/12/19 07:59:38;;;;;;;;;16.00;12.00;;;;;8.88;76.70;101199.25;5068833;27;45370;-61
2022/12/19 08:02:03;;;;;;;;;13.50;11.75;;;;;8.80;76.88;101195.09;5058294;28;45387;-61
2022/12/19 08:04:29;;;;;;;;;13.50;13.50;;;;;8.86;75.62;101202.84;5058412;28;45409;-63
2022/12/19 08:06:54;;;;;;;;;17.50;13.00;;;;;8.93;75.87;101210.53;5066866;28;45279;-58
2022/12/19 08:09:20;;;;;;;;;15.25;10.00;;;;;8.88;75.92;101212.50;5076937;28;45461;-60
2022/12/19 08:11:45;;;;;;;;;16.25;16.25;;;;;8.95;76.89;101214.00;5061662;28;45213;-59
2022/12/19 08:14:11;;;;;;;;;16.25;14.75;;;;;8.94;74.85;101214.91;5057710;28;45244;-60
2022/12/19 08:16:36;;;;;;;;;10.50;10.50;;;;;8.93;75.87;101215.84;5068423;28;45621;-60
2022/12/19 08:19:02;;;;;;;;;16.25;11.00;;;;;8.97;75.28;101206.81;5077218;28;45236;-59
2022/12/19 08:21:29;;;;;;;;;13.25;10.00;;;;;8.95;76.06;101206.88;5059853;28;45495;-58
2022/12/19 08:23:54;;;;;;;;;15.75;13.75;;;;;8.97;74.44;101207.69;5078506;28;46038;-58
2022/12/19 08:26:24;;;;;;;;;15.50;14.00;;;;;9.01;75.57;101216.41;5077989;27;45452;-59
2022/12/19 08:28:54;;;;;;;;;13.50;13.50;;;;;9.03;76.00;101212.78;5078436;28;45330;-57
2022/12/19 08:31:23;;;;;;;;;12.25;10.75;;;;;9.05;75.01;101215.34;5076927;28;46937;-61
2022/12/19 08:33:49;;;;;;;;;15.00;14.00;;;;;9.07;75.34;101218.81;5071866;28;45612;-60
2022/12/19 08:36:17;;;;;;;;;11.75;10.00;;;;;9.09;74.79;101222.25;5073203;28;46038;-59
2022/12/19 08:38:43;;;;;;;;;16.00;13.50;;;;;9.11;74.11;101209.78;5075747;28;45290;-57
2022/12/19 08:41:09;;;;;;;;;10.50;10.50;;;;;9.13;74.65;101208.84;5072181;28;45407;-61
2022/12/19 08:43:34;;;;;;;;;10.50;10.50;;;;;9.12;74.92;101207.09;5039602;28;45506;-58
2022/12/19 08:46:00;;;;;;;;;10.75;10.75;;;;;9.09;73.79;101196.59;5057789;28;45351;-58
2022/12/19 08:48:26;;;;;;;;;13.00;11.50;;;;;9.07;74.67;101209.06;5039642;28;45737;-58
2022/12/19 08:50:55;;;;;;;;;11.25;11.25;;;;;9.14;73.66;101225.63;5070857;28;45396;-55
2022/12/19 08:53:22;;;;;;;;;14.00;9.50;;;;;9.11;74.03;101217.75;5076818;28;45457;-58
2022/12/19 08:55:54;;;;;;;;;7.75;7.75;;;;;9.15;74.20;101219.38;5078072;28;46268;-58
2022/12/19 08:58:19;;;;;;;;;10.75;8.25;;;;;9.18;72.85;101215.72;5079659;28;45272;-59
2022/12/19 09:00:45;;;;;;;;;10.25;10.25;;;;;9.20;74.04;101214.75;5068081;28;45470;-59
2022/12/19 09:03:10;;;;;;;;;10.25;9.75;;;;;9.23;74.01;101219.06;5059388;28;45354;-59
2022/12/19 09:05:36;;;;;;;;;14.50;12.25;;;;;9.23;73.52;101209.28;5058837;28;46820;-57
2022/12/19 09:08:02;;;;;;;;;8.00;6.50;;;;;9.26;73.36;101209.19;5076598;28;45436;-57
2022/12/19 09:10:30;;;;;;;;;11.50;10.00;;;;;9.28;73.31;101206.47;5078013;28;45316;-59
2022/12/19 09:12:56;;;;;;;;;10.00;10.00;;;;;9.24;72.79;101200.41;5078171;28;45536;-58
2022/12/19 09:15:21;;;;;;;;;10.00;7.25;;;;;9.22;72.54;101196.09;5043358;28;47779;-58
2022/12/19 09:17:46;;;;;;;;;11.50;8.25;;;;;9.37;73.10;101206.06;5057790;28;45339;-59
2022/12/19 09:20:12;;;;;;;;;10.25;10.25;;;;;9.36;72.56;101213.19;5057576;28;45557;-59
2022/12/19 09:22:37;;;;;;;;;10.75;10.00;;;;;9.36;71.99;101209.66;5039250;28;45616;-58
2022/12/19 09:25:03;;;;;;;;;9.25;7.50;;;;;9.34;72.46;101223.00;5070242;28;45607;-58
2022/12/19 09:27:29;;;;;;;;;12.00;10.25;;;;;9.33;73.05;101215.97;5059314;28;45408;-59
2022/12/19 09:29:54;;;;;;;;;11.00;9.25;;;;;9.33;72.45;101221.28;5059639;28;45268;-59
2022/12/19 09:32:20;;;;;;;;;11.50;11.00;;;;;9.34;71.95;101222.13;5077763;28;45214;-60
2022/12/19 09:34:45;;;;;;;;;8.50;8.25;;;;;9.37;72.55;101222.88;5077085;28;45355;-60
2022/12/19 09:37:11;;;;;;;;;10.00;10.00;;;;;9.39;72.47;101230.78;5077047;28;45293;-59
2022/12/19 09:39:37;;;;;;;;;12.25;10.00;;;;;9.37;71.49;101233.50;5076903;28;45351;-61
2022/12/19 09:42:24;;;;;;;;;7.25;7.25;;;;;9.41;71.72;101240.41;5076903;28;45279;-60
2022/12/19 09:45:23;;;;;;;;;11.00;9.75;;;;;9.41;71.22;101251.03;5068775;28;45457;-63
2022/12/19 09:47:48;;;;;;;;;10.50;10.50;;;;;9.31;72.53;101231.09;5068909;28;45494;-57
2022/12/19 09:50:29;;;;;;;;;10.50;10.00;;;;;9.44;72.18;101256.22;5076824;28;45326;-60
2022/12/19 09:53:01;;;;;;;;;11.50;10.75;;;;;9.45;71.76;101252.63;5076586;28;45531;-58
2022/12/19 09:55:38;;;;;;;;;12.00;12.00;;;;;9.42;72.00;101252.75;5076184;27;46187;-59
2022/12/19 09:58:30;;;;;;;;;11.75;10.00;;;;;9.48;71.48;101245.47;5058917;28;45426;-60
2022/12/19 10:01:01;;;;;;;;;11.00;10.00;;;;;9.49;71.78;101247.19;5056493;28;45363;-60
2022/12/19 10:03:40;;;;;;;;;11.00;8.50;;;;;9.48;71.06;101240.16;5072211;28;45450;-62
2022/12/19 10:06:16;;;;;;;;;10.25;10.25;;;;;9.49;71.69;101231.25;5076419;28;45382;-59
2022/12/19 10:08:45;;;;;;;;;12.75;10.00;;;;;9.48;71.65;101229.53;5076653;28;45327;-61
2022/12/19 10:11:13;;;;;;;;;13.50;11.75;;;;;9.53;71.58;101240.84;5076817;28;45334;-61
2022/12/19 10:14:15;;;;;;;;;9.00;8.25;;;;;9.53;70.94;101239.06;5057323;28;45552;-60
2022/12/19 10:17:01;;;;;;;;;11.25;10.50;;;;;9.58;70.91;101222.91;5075148;28;46188;-60
2022/12/19 10:19:43;;;;;;;;;15.00;10.50;;;;;9.52;71.41;101217.88;5058724;28;45369;-59
2022/12/19 10:22:18;;;;;;;;;9.25;8.75;;;;;9.65;71.20;101227.06;5058856;28;45248;-59
2022/12/19 10:25:02;;;;;;;;;11.00;10.00;;;;;9.66;70.65;101220.81;5076984;28;45227;-59
2022/12/19 10:27:32;;;;;;;;;11.50;10.00;;;;;9.74;70.09;101210.72;5076677;28;46091;-59
2022/12/19 10:30:13;;;;;;;;;12.75;12.00;;;;;9.78;70.65;101216.78;5075552;28;45504;-60
2022/12/19 10:32:56;;;;;;;;;14.75;12.00;;;;;9.84;70.68;101217.38;5076665;28;45376;-60
2022/12/19 10:35:24;;;;;;;;;11.00;7.00;;;;;9.88;70.82;101218.09;5076887;28;45358;-60
2022/12/19 10:38:23;;;;;;;;;10.00;10.00;;;;;9.89;70.39;101210.03;5075430;28;47073;-60
2022/12/19 10:41:14;;;;;;;;;15.00;13.25;;;;;9.90;70.83;101200.31;5054141;27;45546;-59
2022/12/19 10:43:43;;;;;;;;;11.25;10.75;;;;;9.94;69.93;101213.38;5038017;28;45948;-60
2022/12/19 10:46:39;;;;;;;;;13.25;11.00;;;;;10.01;69.16;101198.88;5075636;27;45508;-59
2022/12/19 10:49:24;;;;;;;;;12.50;11.00;;;;;9.96;69.85;101190.25;5046612;27;47320;-60
2022/12/19 10:52:06;;;;;;;;;11.75;11.25;;;;;9.99;69.56;101198.09;5048499;28;45425;-58
2022/12/19 10:54:42;;;;;;;;;10.75;10.75;;;;;10.09;68.92;101208.34;5038670;28;45429;-59
2022/12/19 10:57:27;;;;;;;;;12.50;12.50;;;;;10.10;69.98;101202.09;5075493;28;45533;-65
2022/12/19 11:00:04;;;;;;;;;14.75;12.25;;;;;10.10;69.84;101202.09;5060557;28;45520;-60
2022/12/19 11:02:38;;;;;;;;;14.75;12.25;;;;;10.12;69.06;101202.88;5060106;28;45587;-61
2022/12/19 11:05:25;;;;;;;;;11.75;10.75;;;;;10.14;68.34;101199.22;5056118;28;45555;-60
2022/12/19 11:08:06;;;;;;;;;9.00;7.00;;;;;10.14;69.10;101198.34;5072576;28;45570;-61
2022/12/19 11:10:37;;;;;;;;;8.50;8.50;;;;;10.16;69.45;101194.72;5055260;28;45563;-60
2022/12/19 11:13:27;;;;;;;;;12.25;11.00;;;;;10.16;69.68;101193.84;5070041;28;45723;-59
2022/12/19 11:15:57;;;;;;;;;14.50;14.00;;;;;10.18;68.90;101191.97;5086276;27;45545;-59
2022/12/19 11:18:23;;;;;;;;;13.75;10.75;;;;;10.14;69.66;101185.91;5054621;28;45275;-61
2022/12/19 11:20:57;;;;;;;;;13.50;11.75;;;;;10.17;69.38;101187.59;5068896;28;45380;-61
2022/12/19 11:23:25;;;;;;;;;17.00;13.50;;;;;10.21;69.96;101178.56;5073613;28;45383;-60
2022/12/19 11:26:04;;;;;;;;;14.00;11.50;;;;;10.25;69.70;101180.16;5041790;28;45326;-59
2022/12/19 11:28:38;;;;;;;;;13.00;11.50;;;;;10.28;68.82;101185.31;5057917;28;45355;-59
2022/12/19 11:31:23;;;;;;;;;14.75;10.75;;;;;10.32;68.84;101176.31;5075052;28;46277;-60
2022/12/19 11:34:02;;;;;;;;;13.25;11.50;;;;;10.29;69.17;101163.16;5075363;28;45464;-59
2022/12/19 11:36:40;;;;;;;;;16.25;11.25;;;;;10.36;69.23;101163.72;5057557;28;45355;-55